Wetterdaten: aktuell Montag, 25.09.2023 16:10
Datum Zeit Temp. A. Feuchte A. Luftdruck Regen Wind Richtung Richtung Taupunkt Windchill Windben
25.09.2023 16:10 20,6 C 57 % 1022,3 hPa 0,0 l/m 2,4 km/h (1 Bft) NW 311 11,8 C 20,6 C 6,4 km/h (2 Bft)
25.09.2023 16:05 20,4 C 56 % 1022,4 hPa 0,0 l/m 2,4 km/h (1 Bft) NW 321 11,3 C 20,4 C 4,8 km/h (1 Bft)
25.09.2023 16:00 20,3 C 57 % 1022,3 hPa 0,0 l/m 2,3 km/h (1 Bft) NW 311 11,5 C 20,3 C 6,4 km/h (2 Bft)
25.09.2023 15:55 20,3 C 59 % 1022,3 hPa 0,0 l/m 2,7 km/h (1 Bft) N-NW 337 12,0 C 20,3 C 6,4 km/h (2 Bft)
25.09.2023 15:50 20,1 C 59 % 1022,3 hPa 0,0 l/m 3,6 km/h (1 Bft) NW 304 11,8 C 20,1 C 6,4 km/h (2 Bft)
25.09.2023 15:45 20,1 C 58 % 1022,4 hPa 0,0 l/m 4,3 km/h (1 Bft) N-NW 345 11,6 C 20,1 C 8,0 km/h (2 Bft)
25.09.2023 15:40 20,2 C 58 % 1022,4 hPa 0,0 l/m 3,2 km/h (1 Bft) N-NW 343 11,7 C 20,2 C 6,4 km/h (2 Bft)
25.09.2023 15:35 20,1 C 58 % 1022,4 hPa 0,0 l/m 1,8 km/h (1 Bft) W-SW 252 11,6 C 20,1 C 4,8 km/h (1 Bft)
25.09.2023 15:30 20,1 C 59 % 1022,5 hPa 0,0 l/m 2,7 km/h (1 Bft) NW 320 11,8 C 20,1 C 6,4 km/h (2 Bft)
25.09.2023 15:25 19,8 C 59 % 1022,5 hPa 0,0 l/m 2,2 km/h (1 Bft) N-NW 331 11,6 C 19,8 C 4,8 km/h (1 Bft)
25.09.2023 15:20 19,8 C 58 % 1022,5 hPa 0,0 l/m 2,9 km/h (1 Bft) N-NW 338 11,3 C 19,8 C 8,0 km/h (2 Bft)
25.09.2023 15:15 19,7 C 59 % 1022,6 hPa 0,0 l/m 4,4 km/h (1 Bft) N 5 11,5 C 19,7 C 9,7 km/h (2 Bft)
25.09.2023 15:10 19,8 C 59 % 1022,5 hPa 0,0 l/m 2,9 km/h (1 Bft) N-NW 328 11,6 C 19,8 C 6,4 km/h (2 Bft)
25.09.2023 15:05 19,9 C 60 % 1022,5 hPa 0,0 l/m 3,4 km/h (1 Bft) N 355 11,9 C 19,9 C 8,0 km/h (2 Bft)
25.09.2023 15:00 20,1 C 60 % 1022,7 hPa 0,0 l/m 3,9 km/h (1 Bft) N-NW 338 12,1 C 20,1 C 8,0 km/h (2 Bft)
25.09.2023 14:55 20,2 C 59 % 1022,7 hPa 0,0 l/m 1,9 km/h (1 Bft) SO 132 11,9 C 20,2 C 4,8 km/h (1 Bft)
25.09.2023 14:50 20,4 C 59 % 1022,7 hPa 0,0 l/m 2,2 km/h (1 Bft) N-NW 348 12,1 C 20,4 C 4,8 km/h (1 Bft)
25.09.2023 14:45 19,8 C 60 % 1022,7 hPa 0,0 l/m 0,9 km/h (0 Bft) N-NW 333 11,8 C 19,8 C 3,2 km/h (1 Bft)
25.09.2023 14:40 19,2 C 60 % 1022,8 hPa 0,0 l/m 2,9 km/h (1 Bft) N-NW 348 11,2 C 19,2 C 6,4 km/h (2 Bft)
25.09.2023 14:35 19,3 C 60 % 1022,8 hPa 0,0 l/m 3,4 km/h (1 Bft) N 355 11,3 C 19,3 C 8,0 km/h (2 Bft)
25.09.2023 14:30 19,0 C 61 % 1022,9 hPa 0,0 l/m 2,4 km/h (1 Bft) N 350 11,3 C 19,0 C 6,4 km/h (2 Bft)
25.09.2023 14:25 19,4 C 61 % 1022,9 hPa 0,0 l/m 3,6 km/h (1 Bft) N-NW 344 11,7 C 19,4 C 8,0 km/h (2 Bft)
25.09.2023 14:20 19,2 C 61 % 1022,8 hPa 0,0 l/m 3,5 km/h (1 Bft) W 267 11,5 C 19,2 C 6,4 km/h (2 Bft)
25.09.2023 14:15 19,3 C 62 % 1022,9 hPa 0,0 l/m 2,3 km/h (1 Bft) NW 308 11,8 C 19,3 C 4,8 km/h (1 Bft)
25.09.2023 14:10 19,2 C 61 % 1022,8 hPa 0,0 l/m 2,5 km/h (1 Bft) N-NW 331 11,5 C 19,2 C 4,8 km/h (1 Bft)
25.09.2023 14:05 18,7 C 63 % 1022,8 hPa 0,0 l/m 3,1 km/h (1 Bft) NW 324 11,5 C 18,7 C 6,4 km/h (2 Bft)
25.09.2023 14:00 18,7 C 62 % 1022,9 hPa 0,0 l/m 3,8 km/h (1 Bft) N-NW 346 11,3 C 18,7 C 6,4 km/h (2 Bft)
25.09.2023 13:55 19,0 C 62 % 1022,9 hPa 0,0 l/m 2,8 km/h (1 Bft) W-NW 297 11,6 C 19,0 C 6,4 km/h (2 Bft)
25.09.2023 13:50 18,8 C 62 % 1022,9 hPa 0,0 l/m 3,5 km/h (1 Bft) NW 305 11,4 C 18,8 C 6,4 km/h (2 Bft)
25.09.2023 13:45 18,8 C 62 % 1022,9 hPa 0,0 l/m 2,8 km/h (1 Bft) NW 317 11,4 C 18,8 C 6,4 km/h (2 Bft)
25.09.2023 13:40 18,4 C 64 % 1022,8 hPa 0,0 l/m 2,0 km/h (1 Bft) NW 321 11,5 C 18,4 C 4,8 km/h (1 Bft)
25.09.2023 13:35 18,3 C 63 % 1022,9 hPa 0,0 l/m 2,9 km/h (1 Bft) NW 312 11,1 C 18,3 C 8,0 km/h (2 Bft)
25.09.2023 13:30 18,3 C 64 % 1022,9 hPa 0,0 l/m 3,3 km/h (1 Bft) NW 309 11,4 C 18,3 C 6,4 km/h (2 Bft)
25.09.2023 13:25 18,1 C 64 % 1022,9 hPa 0,0 l/m 2,9 km/h (1 Bft) N-NW 343 11,2 C 18,1 C 6,4 km/h (2 Bft)
25.09.2023 13:20 17,9 C 63 % 1022,8 hPa 0,0 l/m 3,6 km/h (1 Bft) N-NW 336 10,8 C 17,9 C 6,4 km/h (2 Bft)
25.09.2023 13:15 18,1 C 63 % 1022,9 hPa 0,0 l/m 1,1 km/h (1 Bft) W-NW 300 10,9 C 18,1 C 4,8 km/h (1 Bft)
25.09.2023 13:10 17,9 C 64 % 1022,9 hPa 0,0 l/m 2,7 km/h (1 Bft) NW 309 11,0 C 17,9 C 6,4 km/h (2 Bft)
25.09.2023 13:05 17,6 C 64 % 1023,1 hPa 0,0 l/m 1,6 km/h (1 Bft) NW 316 10,7 C 17,6 C 4,8 km/h (1 Bft)
25.09.2023 13:00 17,7 C 63 % 1023,0 hPa 0,0 l/m 1,1 km/h (1 Bft) NW 311 10,6 C 17,7 C 4,8 km/h (1 Bft)
25.09.2023 12:55 17,3 C 65 % 1023,1 hPa 0,0 l/m 2,3 km/h (1 Bft) W-NW 302 10,7 C 17,3 C 4,8 km/h (1 Bft)
25.09.2023 12:50 17,3 C 65 % 1023,1 hPa 0,0 l/m 4,2 km/h (1 Bft) N 350 10,7 C 17,3 C 9,7 km/h (2 Bft)
25.09.2023 12:45 17,4 C 66 % 1023,0 hPa 0,0 l/m 2,0 km/h (1 Bft) N-NW 331 11,0 C 17,4 C 6,4 km/h (2 Bft)
25.09.2023 12:40 16,8 C 67 % 1023,0 hPa 0,0 l/m 2,8 km/h (1 Bft) NW 318 10,6 C 16,8 C 8,0 km/h (2 Bft)
25.09.2023 12:35 17,2 C 66 % 1023,0 hPa 0,0 l/m 2,8 km/h (1 Bft) NW 321 10,8 C 17,2 C 4,8 km/h (1 Bft)
25.09.2023 12:30 17,1 C 64 % 1023,0 hPa 0,0 l/m 3,3 km/h (1 Bft) N 360 10,2 C 17,1 C 6,4 km/h (2 Bft)
25.09.2023 12:25 17,2 C 63 % 1023,0 hPa 0,0 l/m 1,5 km/h (1 Bft) NW 312 10,1 C 17,2 C 4,8 km/h (1 Bft)
25.09.2023 12:20 16,9 C 63 % 1023,1 hPa 0,0 l/m 1,7 km/h (1 Bft) NW 312 9,8 C 16,9 C 4,8 km/h (1 Bft)
25.09.2023 12:15 17,1 C 61 % 1023,1 hPa 0,0 l/m 1,3 km/h (1 Bft) N-NW 342 9,5 C 17,1 C 4,8 km/h (1 Bft)
25.09.2023 12:10 16,8 C 62 % 1023,1 hPa 0,0 l/m 1,2 km/h (1 Bft) S 179 9,5 C 16,8 C 4,8 km/h (1 Bft)
25.09.2023 12:05 16,9 C 62 % 1023,1 hPa 0,0 l/m 2,3 km/h (1 Bft) S 179 9,6 C 16,9 C 6,4 km/h (2 Bft)
25.09.2023 12:00 16,8 C 63 % 1023,2 hPa 0,0 l/m 3,5 km/h (1 Bft) S 190 9,7 C 16,8 C 8,0 km/h (2 Bft)
25.09.2023 11:55 16,6 C 64 % 1023,2 hPa 0,0 l/m 4,7 km/h (1 Bft) S 169 9,8 C 16,6 C 9,7 km/h (2 Bft)
25.09.2023 11:50 16,3 C 64 % 1023,2 hPa 0,0 l/m 2,1 km/h (1 Bft) S 177 9,5 C 16,3 C 4,8 km/h (1 Bft)
25.09.2023 11:45 16,4 C 63 % 1023,2 hPa 0,0 l/m 1,8 km/h (1 Bft) NO 38 9,3 C 16,4 C 4,8 km/h (1 Bft)
25.09.2023 11:40 16,1 C 64 % 1023,3 hPa 0,0 l/m 2,0 km/h (1 Bft) NW 326 9,3 C 16,1 C 4,8 km/h (1 Bft)
25.09.2023 11:35 16,1 C 64 % 1023,2 hPa 0,0 l/m 0,8 km/h (0 Bft) NW 315 9,3 C 16,1 C 4,8 km/h (1 Bft)
25.09.2023 11:30 16,2 C 65 % 1023,3 hPa 0,0 l/m 1,0 km/h (0 Bft) NW 307 9,6 C 16,2 C 3,2 km/h (1 Bft)
25.09.2023 11:25 16,1 C 66 % 1023,3 hPa 0,0 l/m 0,2 km/h (0 Bft) W 279 9,7 C 16,1 C 1,6 km/h (1 Bft)
25.09.2023 11:20 15,3 C 66 % 1023,4 hPa 0,0 l/m 0,8 km/h (0 Bft) N-NW 346 9,0 C 15,3 C 3,2 km/h (1 Bft)
25.09.2023 11:15 15,0 C 68 % 1023,3 hPa 0,0 l/m 0,7 km/h (0 Bft) N 360 9,1 C 15,0 C 4,8 km/h (1 Bft)
25.09.2023 11:10 14,9 C 68 % 1023,3 hPa 0,0 l/m 0,9 km/h (0 Bft) W-NW 287 9,0 C 14,9 C 3,2 km/h (1 Bft)
25.09.2023 11:05 14,9 C 67 % 1023,3 hPa 0,0 l/m 0,2 km/h (0 Bft) W-NW 285 8,8 C 14,9 C 1,6 km/h (1 Bft)
25.09.2023 11:00 15,1 C 68 % 1023,3 hPa 0,0 l/m 0,1 km/h (0 Bft) W-NW 285 9,2 C 15,1 C 1,6 km/h (1 Bft)
25.09.2023 10:55 15,1 C 68 % 1023,3 hPa 0,0 l/m 0,5 km/h (0 Bft) W-NW 285 9,2 C 15,1 C 3,2 km/h (1 Bft)
25.09.2023 10:50 14,7 C 69 % 1023,3 hPa 0,0 l/m 0,2 km/h (0 Bft) W-NW 285 9,1 C 14,7 C 1,6 km/h (1 Bft)
25.09.2023 10:45 14,3 C 70 % 1023,3 hPa 0,0 l/m 0,2 km/h (0 Bft) N-NW 347 8,9 C 14,3 C 1,6 km/h (1 Bft)
25.09.2023 10:40 14,2 C 70 % 1023,3 hPa 0,0 l/m 1,4 km/h (1 Bft) N-NW 347 8,8 C 14,2 C 3,2 km/h (1 Bft)
25.09.2023 10:35 14,2 C 71 % 1023,2 hPa 0,0 l/m 0,4 km/h (0 Bft) N 350 9,0 C 14,2 C 3,2 km/h (1 Bft)
25.09.2023 10:30 14,1 C 72 % 1023,3 hPa 0,0 l/m 2,0 km/h (1 Bft) N 350 9,1 C 14,1 C 4,8 km/h (1 Bft)
25.09.2023 10:25 14,0 C 71 % 1023,3 hPa 0,0 l/m 2,5 km/h (1 Bft) N-NW 344 8,8 C 14,0 C 6,4 km/h (2 Bft)
25.09.2023 10:20 13,9 C 71 % 1023,3 hPa 0,0 l/m 1,1 km/h (1 Bft) N 360 8,7 C 13,9 C 3,2 km/h (1 Bft)
25.09.2023 10:15 13,8 C 70 % 1023,4 hPa 0,0 l/m 1,6 km/h (1 Bft) N 360 8,4 C 13,8 C 4,8 km/h (1 Bft)
25.09.2023 10:10 13,6 C 71 % 1023,3 hPa 0,0 l/m 0,9 km/h (0 Bft) N 360 8,4 C 13,6 C 3,2 km/h (1 Bft)
25.09.2023 10:05 13,4 C 70 % 1023,2 hPa 0,0 l/m 1,8 km/h (1 Bft) N 360 8,0 C 13,4 C 4,8 km/h (1 Bft)
25.09.2023 10:00 13,3 C 71 % 1023,1 hPa 0,0 l/m 1,2 km/h (1 Bft) N 360 8,2 C 13,3 C 3,2 km/h (1 Bft)
25.09.2023 09:55 13,2 C 71 % 1023,0 hPa 0,0 l/m 1,7 km/h (1 Bft) N 360 8,1 C 13,2 C 3,2 km/h (1 Bft)
25.09.2023 09:50 13,2 C 71 % 1023,0 hPa 0,0 l/m 1,3 km/h (1 Bft) N-NW 344 8,1 C 13,2 C 3,2 km/h (1 Bft)
25.09.2023 09:45 13,0 C 71 % 1023,1 hPa 0,0 l/m 1,6 km/h (1 Bft) N-NW 345 7,9 C 13,0 C 4,8 km/h (1 Bft)
25.09.2023 09:40 13,0 C 69 % 1023,0 hPa 0,0 l/m 0,0 km/h (0 Bft) S-SW 192 7,4 C 13,0 C 0,0 km/h (0 Bft)
25.09.2023 09:35 12,8 C 71 % 1023,0 hPa 0,0 l/m 0,0 km/h (0 Bft) S-SW 192 7,7 C 12,8 C 1,6 km/h (1 Bft)
25.09.2023 09:30 12,5 C 73 % 1023,0 hPa 0,0 l/m 0,0 km/h (0 Bft) S-SW 192 7,8 C 12,5 C 0,0 km/h (0 Bft)
25.09.2023 09:25 12,5 C 73 % 1022,9 hPa 0,0 l/m 0,0 km/h (0 Bft) S-SW 192 7,8 C 12,5 C 0,0 km/h (0 Bft)
25.09.2023 09:20 12,1 C 75 % 1023,0 hPa 0,0 l/m 0,0 km/h (0 Bft) S-SW 192 7,8 C 12,1 C 0,0 km/h (0 Bft)
25.09.2023 09:15 11,6 C 75 % 1022,9 hPa 0,0 l/m 0,1 km/h (0 Bft) S-SW 192 7,3 C 11,6 C 1,6 km/h (1 Bft)
25.09.2023 09:10 11,3 C 76 % 1022,9 hPa 0,0 l/m 0,7 km/h (0 Bft) S-SW 192 7,2 C 11,3 C 1,6 km/h (1 Bft)
25.09.2023 09:05 11,1 C 76 % 1023,0 hPa 0,0 l/m 0,6 km/h (0 Bft) S-SW 192 7,0 C 11,1 C 3,2 km/h (1 Bft)
25.09.2023 09:00 10,8 C 76 % 1023,0 hPa 0,0 l/m 0,8 km/h (0 Bft) S-SW 192 6,7 C 10,8 C 3,2 km/h (1 Bft)
25.09.2023 08:55 10,6 C 76 % 1023,0 hPa 0,0 l/m 1,4 km/h (1 Bft) S-SW 192 6,5 C 10,6 C 3,2 km/h (1 Bft)
25.09.2023 08:50 10,2 C 77 % 1023,0 hPa 0,0 l/m 1,2 km/h (1 Bft) S-SW 192 6,4 C 10,2 C 3,2 km/h (1 Bft)
25.09.2023 08:45 9,9 C 78 % 1023,0 hPa 0,0 l/m 1,4 km/h (1 Bft) S-SW 192 6,2 C 9,9 C 3,2 km/h (1 Bft)
25.09.2023 08:40 9,8 C 77 % 1023,1 hPa 0,0 l/m 0,8 km/h (0 Bft) S-SW 192 6,0 C 9,8 C 3,2 km/h (1 Bft)
25.09.2023 08:35 9,6 C 78 % 1023,0 hPa 0,0 l/m 0,6 km/h (0 Bft) S-SW 192 6,0 C 9,6 C 3,2 km/h (1 Bft)
25.09.2023 08:30 9,5 C 78 % 1023,1 hPa 0,0 l/m 0,9 km/h (0 Bft) S-SW 192 5,9 C 9,5 C 3,2 km/h (1 Bft)
25.09.2023 08:25 9,3 C 78 % 1023,0 hPa 0,0 l/m 1,6 km/h (1 Bft) S-SW 192 5,7 C 9,3 C 3,2 km/h (1 Bft)
25.09.2023 08:20 9,1 C 78 % 1023,0 hPa 0,0 l/m 2,5 km/h (1 Bft) S-SW 192 5,5 C 9,1 C 4,8 km/h (1 Bft)
25.09.2023 08:15 8,8 C 80 % 1022,9 hPa 0,0 l/m 2,4 km/h (1 Bft) S-SW 192 5,5 C 8,8 C 4,8 km/h (1 Bft)
25.09.2023 08:10 8,4 C 81 % 1022,9 hPa 0,0 l/m 2,1 km/h (1 Bft) S 191 5,3 C 8,4 C 4,8 km/h (1 Bft)
25.09.2023 08:05 8,2 C 81 % 1022,9 hPa 0,0 l/m 2,6 km/h (1 Bft) S 183 5,1 C 8,2 C 4,8 km/h (1 Bft)
25.09.2023 08:00 8,0 C 82 % 1022,8 hPa 0,0 l/m 1,4 km/h (1 Bft) S 176 5,1 C 8,0 C 4,8 km/h (1 Bft)
25.09.2023 07:55 8,0 C 82 % 1022,8 hPa 0,0 l/m 0,0 km/h (0 Bft) S 176 5,1 C 8,0 C 0,0 km/h (0 Bft)
_ Min-Zeit 07:45 16:05 04:55 - 00:05 - - 07:50 07:50 00:05
Minimum _ 7,8 C 56 % 1022,1 hPa - 0,0 km/h (0 Bft) - - 4,9 C 7,8 C 0,0 km/h (0 Bft)
_ Max-Zeit 16:10 07:30 00:00 00:00 11:55 - - 14:50 16:10 11:55
Maximum _ 20,7 C 82 % 1023,6 hPa 0,0 l/m 4,7 km/h
S (1 Bft)
- - 12,1 C 20,6 C 9,7 km/h
S-SO (2 Bft)
Durchschnitt _ 13,2 C 71 % 1022,9 hPa #0,0 l/m 1,2 km/h (1 Bft) NW - 8,0 C 13,2 C 3,4 km/h (1 Bft)